sensor_id;sensor_type;location;lat;lon;timestamp;temperature;humidity
75010;DHT22;63564;46.840;18.336;2022-11-15T00:00:24;5.86;99.47
75010;DHT22;63564;46.840;18.336;2022-11-15T00:03:26;5.83;99.76
75010;DHT22;63564;46.840;18.336;2022-11-15T00:06:27;5.80;99.96
75010;DHT22;63564;46.840;18.336;2022-11-15T00:09:27;5.73;99.99
75010;DHT22;63564;46.840;18.336;2022-11-15T00:12:28;5.74;99.99
75010;DHT22;63564;46.840;18.336;2022-11-15T00:15:28;5.76;99.99
75010;DHT22;63564;46.840;18.336;2022-11-15T00:18:29;5.96;99.99
75010;DHT22;63564;46.840;18.336;2022-11-15T00:21:30;5.96;99.99
75010;DHT22;63564;46.840;18.336;2022-11-15T00:24:30;5.90;99.99
75010;DHT22;63564;46.840;18.336;2022-11-15T00:27:30;6.03;99.99
75010;DHT22;63564;46.840;18.336;2022-11-15T00:30:31;5.93;99.99
75010;DHT22;63564;46.840;18.336;2022-11-15T00:33:32;5.79;99.99
75010;DHT22;63564;46.840;18.336;2022-11-15T00:36:33;5.81;99.99
75010;DHT22;63564;46.840;18.336;2022-11-15T00:39:34;5.73;99.99
75010;DHT22;63564;46.840;18.336;2022-11-15T00:42:35;5.77;99.99
75010;DHT22;63564;46.840;18.336;2022-11-15T00:45:35;5.80;99.99
75010;DHT22;63564;46.840;18.336;2022-11-15T00:48:36;5.59;99.99
75010;DHT22;63564;46.840;18.336;2022-11-15T00:51:36;5.58;99.99
75010;DHT22;63564;46.840;18.336;2022-11-15T00:54:37;5.53;99.99
75010;DHT22;63564;46.840;18.336;2022-11-15T00:57:37;5.53;99.99
75010;DHT22;63564;46.840;18.336;2022-11-15T01:00:37;5.52;99.99
75010;DHT22;63564;46.840;18.336;2022-11-15T01:03:39;5.43;99.99
75010;DHT22;63564;46.840;18.336;2022-11-15T01:06:40;5.46;99.99
75010;DHT22;63564;46.840;18.336;2022-11-15T01:09:40;5.39;99.99
75010;DHT22;63564;46.840;18.336;2022-11-15T01:12:40;5.48;99.99
75010;DHT22;63564;46.840;18.336;2022-11-15T01:15:41;5.45;99.99
75010;DHT22;63564;46.840;18.336;2022-11-15T01:18:41;5.52;99.99
75010;DHT22;63564;46.840;18.336;2022-11-15T01:21:42;5.62;99.99
75010;DHT22;63564;46.840;18.336;2022-11-15T01:24:42;5.71;99.44
75010;DHT22;63564;46.840;18.336;2022-11-15T01:27:42;5.71;99.22
75010;DHT22;63564;46.840;18.336;2022-11-15T01:30:43;5.56;99.53
75010;DHT22;63564;46.840;18.336;2022-11-15T01:33:43;5.63;99.23
75010;DHT22;63564;46.840;18.336;2022-11-15T01:36:44;5.69;99.02
75010;DHT22;63564;46.840;18.336;2022-11-15T01:39:44;5.56;99.39
75010;DHT22;63564;46.840;18.336;2022-11-15T01:42:44;5.60;99.01
75010;DHT22;63564;46.840;18.336;2022-11-15T01:45:49;5.55;99.65
75010;DHT22;63564;46.840;18.336;2022-11-15T01:48:52;5.35;99.99
75010;DHT22;63564;46.840;18.336;2022-11-15T01:51:53;5.18;99.99
75010;DHT22;63564;46.840;18.336;2022-11-15T01:58:01;5.31;99.99
75010;DHT22;63564;46.840;18.336;2022-11-15T02:01:02;5.48;99.99
75010;DHT22;63564;46.840;18.336;2022-11-15T02:04:10;5.40;99.99
75010;DHT22;63564;46.840;18.336;2022-11-15T02:07:15;5.49;99.88
75010;DHT22;63564;46.840;18.336;2022-11-15T02:10:20;5.36;99.99
75010;DHT22;63564;46.840;18.336;2022-11-15T02:13:21;5.49;99.99
75010;DHT22;63564;46.840;18.336;2022-11-15T02:33:55;5.66;99.15
75010;DHT22;63564;46.840;18.336;2022-11-15T02:40:45;5.58;99.11
75010;DHT22;63564;46.840;18.336;2022-11-15T02:43:50;5.53;99.55
75010;DHT22;63564;46.840;18.336;2022-11-15T02:47:06;5.29;99.99
75010;DHT22;63564;46.840;18.336;2022-11-15T02:50:17;5.24;99.99
75010;DHT22;63564;46.840;18.336;2022-11-15T02:53:24;5.28;99.99
75010;DHT22;63564;46.840;18.336;2022-11-15T02:56:24;5.40;99.99
75010;DHT22;63564;46.840;18.336;2022-11-15T02:59:44;5.46;99.99
75010;DHT22;63564;46.840;18.336;2022-11-15T03:03:13;5.42;99.99
75010;DHT22;63564;46.840;18.336;2022-11-15T03:12:28;5.21;99.99
75010;DHT22;63564;46.840;18.336;2022-11-15T03:15:35;5.11;99.99
75010;DHT22;63564;46.840;18.336;2022-11-15T03:18:40;5.18;99.99
75010;DHT22;63564;46.840;18.336;2022-11-15T03:21:41;5.28;99.99
75010;DHT22;63564;46.840;18.336;2022-11-15T03:24:44;5.25;99.99
75010;DHT22;63564;46.840;18.336;2022-11-15T03:27:49;5.28;99.99
75010;DHT22;63564;46.840;18.336;2022-11-15T03:30:51;5.24;99.99
75010;DHT22;63564;46.840;18.336;2022-11-15T03:33:55;5.20;99.99
75010;DHT22;63564;46.840;18.336;2022-11-15T03:36:57;5.20;99.99
75010;DHT22;63564;46.840;18.336;2022-11-15T03:39:57;5.24;99.99
75010;DHT22;63564;46.840;18.336;2022-11-15T03:43:11;5.14;99.99
75010;DHT22;63564;46.840;18.336;2022-11-15T03:46:38;5.18;99.99
75010;DHT22;63564;46.840;18.336;2022-11-15T03:49:44;5.14;99.99
75010;DHT22;63564;46.840;18.336;2022-11-15T03:52:46;5.18;99.99
75010;DHT22;63564;46.840;18.336;2022-11-15T03:55:47;5.14;99.99
75010;DHT22;63564;46.840;18.336;2022-11-15T03:58:48;5.28;99.99
75010;DHT22;63564;46.840;18.336;2022-11-15T04:01:48;5.27;99.99
75010;DHT22;63564;46.840;18.336;2022-11-15T04:04:48;5.28;99.99
75010;DHT22;63564;46.840;18.336;2022-11-15T04:07:49;5.38;99.99
75010;DHT22;63564;46.840;18.336;2022-11-15T04:10:49;5.22;99.99
75010;DHT22;63564;46.840;18.336;2022-11-15T04:13:50;5.11;99.99
75010;DHT22;63564;46.840;18.336;2022-11-15T04:16:50;5.24;99.99
75010;DHT22;63564;46.840;18.336;2022-11-15T04:19:50;5.17;99.99
75010;DHT22;63564;46.840;18.336;2022-11-15T04:23:13;5.17;99.99
75010;DHT22;63564;46.840;18.336;2022-11-15T04:26:33;5.39;99.99
75010;DHT22;63564;46.840;18.336;2022-11-15T04:29:33;5.48;99.99
75010;DHT22;63564;46.840;18.336;2022-11-15T04:32:34;5.27;99.99
75010;DHT22;63564;46.840;18.336;2022-11-15T04:35:34;5.17;99.99
75010;DHT22;63564;46.840;18.336;2022-11-15T04:38:35;5.27;99.99
75010;DHT22;63564;46.840;18.336;2022-11-15T04:41:36;5.18;99.99
75010;DHT22;63564;46.840;18.336;2022-11-15T04:44:36;5.14;99.99
75010;DHT22;63564;46.840;18.336;2022-11-15T04:47:37;5.24;99.99
75010;DHT22;63564;46.840;18.336;2022-11-15T04:50:37;5.17;99.99
75010;DHT22;63564;46.840;18.336;2022-11-15T04:53:37;5.31;99.99
75010;DHT22;63564;46.840;18.336;2022-11-15T04:56:38;5.21;99.99
75010;DHT22;63564;46.840;18.336;2022-11-15T04:59:38;5.27;99.99
75010;DHT22;63564;46.840;18.336;2022-11-15T05:02:38;5.39;99.99
75010;DHT22;63564;46.840;18.336;2022-11-15T05:05:58;5.34;99.99
75010;DHT22;63564;46.840;18.336;2022-11-15T05:08:59;5.29;99.99
75010;DHT22;63564;46.840;18.336;2022-11-15T05:11:59;5.32;99.99
75010;DHT22;63564;46.840;18.336;2022-11-15T05:14:59;5.31;99.99
75010;DHT22;63564;46.840;18.336;2022-11-15T05:18:00;5.24;99.99
75010;DHT22;63564;46.840;18.336;2022-11-15T05:21:08;5.35;99.99
75010;DHT22;63564;46.840;18.336;2022-11-15T05:24:10;5.25;99.99
75010;DHT22;63564;46.840;18.336;2022-11-15T05:27:11;5.32;99.99
75010;DHT22;63564;46.840;18.336;2022-11-15T05:30:11;5.35;99.99
75010;DHT22;63564;46.840;18.336;2022-11-15T05:33:11;5.35;99.99
75010;DHT22;63564;46.840;18.336;2022-11-15T05:39:15;5.27;99.99
75010;DHT22;63564;46.840;18.336;2022-11-15T05:42:16;5.31;99.99
75010;DHT22;63564;46.840;18.336;2022-11-15T05:45:17;5.50;99.99
75010;DHT22;63564;46.840;18.336;2022-11-15T05:48:17;5.59;99.99
75010;DHT22;63564;46.840;18.336;2022-11-15T05:51:19;5.43;99.99
75010;DHT22;63564;46.840;18.336;2022-11-15T05:54:21;5.53;99.99
75010;DHT22;63564;46.840;18.336;2022-11-15T05:57:22;5.55;99.99
75010;DHT22;63564;46.840;18.336;2022-11-15T06:00:22;5.58;99.99
75010;DHT22;63564;46.840;18.336;2022-11-15T06:03:23;5.52;99.99
75010;DHT22;63564;46.840;18.336;2022-11-15T06:06:23;5.56;99.99
75010;DHT22;63564;46.840;18.336;2022-11-15T06:09:23;5.56;99.99
75010;DHT22;63564;46.840;18.336;2022-11-15T06:12:24;5.71;99.99
75010;DHT22;63564;46.840;18.336;2022-11-15T06:15:24;5.65;99.99
75010;DHT22;63564;46.840;18.336;2022-11-15T06:18:25;5.83;99.99
75010;DHT22;63564;46.840;18.336;2022-11-15T06:21:25;5.93;99.92
75010;DHT22;63564;46.840;18.336;2022-11-15T06:24:27;5.83;99.81
75010;DHT22;63564;46.840;18.336;2022-11-15T06:27:28;5.87;99.50
75010;DHT22;63564;46.840;18.336;2022-11-15T06:30:28;6.06;99.09
75010;DHT22;63564;46.840;18.336;2022-11-15T06:33:29;5.97;99.27
75010;DHT22;63564;46.840;18.336;2022-11-15T06:36:29;5.90;99.45
75010;DHT22;63564;46.840;18.336;2022-11-15T06:39:29;5.98;99.36
75010;DHT22;63564;46.840;18.336;2022-11-15T06:42:29;5.85;99.41
75010;DHT22;63564;46.840;18.336;2022-11-15T06:45:30;5.79;99.38
75010;DHT22;63564;46.840;18.336;2022-11-15T06:48:31;5.89;99.70
75010;DHT22;63564;46.840;18.336;2022-11-15T06:51:32;5.98;99.72
75010;DHT22;63564;46.840;18.336;2022-11-15T06:54:33;6.06;99.19
75010;DHT22;63564;46.840;18.336;2022-11-15T06:57:34;6.17;98.87
75010;DHT22;63564;46.840;18.336;2022-11-15T07:00:35;5.98;99.02
75010;DHT22;63564;46.840;18.336;2022-11-15T07:03:40;6.14;99.05
75010;DHT22;63564;46.840;18.336;2022-11-15T07:06:41;6.07;98.78
75010;DHT22;63564;46.840;18.336;2022-11-15T07:09:41;6.21;98.53
75010;DHT22;63564;46.840;18.336;2022-11-15T07:12:41;6.25;98.55
75010;DHT22;63564;46.840;18.336;2022-11-15T07:15:42;6.25;98.74
75010;DHT22;63564;46.840;18.336;2022-11-15T07:18:42;6.28;98.79
75010;DHT22;63564;46.840;18.336;2022-11-15T07:21:42;6.04;99.16
75010;DHT22;63564;46.840;18.336;2022-11-15T07:24:43;6.08;99.55
75010;DHT22;63564;46.840;18.336;2022-11-15T07:27:43;6.14;98.51
75010;DHT22;63564;46.840;18.336;2022-11-15T07:30:43;6.39;99.19
75010;DHT22;63564;46.840;18.336;2022-11-15T07:33:44;6.34;98.40
75010;DHT22;63564;46.840;18.336;2022-11-15T07:36:44;6.22;98.44
75010;DHT22;63564;46.840;18.336;2022-11-15T07:39:44;6.46;97.92
75010;DHT22;63564;46.840;18.336;2022-11-15T07:42:44;6.41;98.55
75010;DHT22;63564;46.840;18.336;2022-11-15T07:45:54;6.68;97.60
75010;DHT22;63564;46.840;18.336;2022-11-15T07:48:55;6.50;98.73
75010;DHT22;63564;46.840;18.336;2022-11-15T07:51:55;6.38;98.67
75010;DHT22;63564;46.840;18.336;2022-11-15T07:54:55;7.21;99.99
75010;DHT22;63564;46.840;18.336;2022-11-15T07:58:04;7.07;99.73
75010;DHT22;63564;46.840;18.336;2022-11-15T08:01:05;6.83;97.16
75010;DHT22;63564;46.840;18.336;2022-11-15T08:04:06;6.86;96.33
75010;DHT22;63564;46.840;18.336;2022-11-15T08:07:06;6.77;96.88
75010;DHT22;63564;46.840;18.336;2022-11-15T08:10:07;6.73;97.46
75010;DHT22;63564;46.840;18.336;2022-11-15T08:13:10;6.75;97.38
75010;DHT22;63564;46.840;18.336;2022-11-15T08:16:10;6.61;98.01
75010;DHT22;63564;46.840;18.336;2022-11-15T08:19:12;6.79;98.46
75010;DHT22;63564;46.840;18.336;2022-11-15T08:22:12;6.63;98.28
75010;DHT22;63564;46.840;18.336;2022-11-15T08:25:12;6.59;98.29
75010;DHT22;63564;46.840;18.336;2022-11-15T08:28:15;6.87;98.31
75010;DHT22;63564;46.840;18.336;2022-11-15T08:31:17;6.90;97.54
75010;DHT22;63564;46.840;18.336;2022-11-15T08:34:18;6.96;97.05
75010;DHT22;63564;46.840;18.336;2022-11-15T08:37:18;6.84;97.24
75010;DHT22;63564;46.840;18.336;2022-11-15T08:40:19;6.82;98.14
75010;DHT22;63564;46.840;18.336;2022-11-15T08:43:19;6.89;97.74
75010;DHT22;63564;46.840;18.336;2022-11-15T08:46:21;7.15;97.03
75010;DHT22;63564;46.840;18.336;2022-11-15T08:49:21;7.12;97.58
75010;DHT22;63564;46.840;18.336;2022-11-15T08:52:22;7.00;96.22
75010;DHT22;63564;46.840;18.336;2022-11-15T08:55:22;7.18;96.10
75010;DHT22;63564;46.840;18.336;2022-11-15T08:58:22;7.49;96.87
75010;DHT22;63564;46.840;18.336;2022-11-15T09:01:23;7.62;94.99
75010;DHT22;63564;46.840;18.336;2022-11-15T09:04:23;7.48;93.75
75010;DHT22;63564;46.840;18.336;2022-11-15T09:07:23;7.58;97.53
75010;DHT22;63564;46.840;18.336;2022-11-15T09:10:24;7.18;96.35
75010;DHT22;63564;46.840;18.336;2022-11-15T09:13:24;7.82;98.66
75010;DHT22;63564;46.840;18.336;2022-11-15T09:16:25;7.18;96.76
75010;DHT22;63564;46.840;18.336;2022-11-15T09:19:25;7.07;98.27
75010;DHT22;63564;46.840;18.336;2022-11-15T09:22:25;7.18;96.68
75010;DHT22;63564;46.840;18.336;2022-11-15T09:25:26;7.47;97.41
75010;DHT22;63564;46.840;18.336;2022-11-15T09:28:28;7.70;95.51
75010;DHT22;63564;46.840;18.336;2022-11-15T09:31:28;7.55;95.96
75010;DHT22;63564;46.840;18.336;2022-11-15T09:34:29;7.24;97.15
75010;DHT22;63564;46.840;18.336;2022-11-15T09:37:31;7.21;96.96
75010;DHT22;63564;46.840;18.336;2022-11-15T09:40:36;7.28;97.56
75010;DHT22;63564;46.840;18.336;2022-11-15T09:44:09;7.41;96.42
75010;DHT22;63564;46.840;18.336;2022-11-15T09:47:45;7.14;97.01
75010;DHT22;63564;46.840;18.336;2022-11-15T09:50:49;7.10;97.35
75010;DHT22;63564;46.840;18.336;2022-11-15T09:54:04;7.21;97.65
75010;DHT22;63564;46.840;18.336;2022-11-15T09:57:18;7.39;96.98
75010;DHT22;63564;46.840;18.336;2022-11-15T10:00:36;7.76;96.93
75010;DHT22;63564;46.840;18.336;2022-11-15T10:03:39;7.80;94.87
75010;DHT22;63564;46.840;18.336;2022-11-15T10:06:47;7.69;95.44
75010;DHT22;63564;46.840;18.336;2022-11-15T10:09:56;7.91;95.71
75010;DHT22;63564;46.840;18.336;2022-11-15T10:12:59;7.85;95.59
75010;DHT22;63564;46.840;18.336;2022-11-15T10:19:45;8.65;94.87
75010;DHT22;63564;46.840;18.336;2022-11-15T10:22:56;8.06;93.95
75010;DHT22;63564;46.840;18.336;2022-11-15T10:25:59;8.14;94.68
75010;DHT22;63564;46.840;18.336;2022-11-15T10:29:00;8.34;93.95
75010;DHT22;63564;46.840;18.336;2022-11-15T10:32:00;8.34;94.35
75010;DHT22;63564;46.840;18.336;2022-11-15T10:35:16;7.98;94.58
75010;DHT22;63564;46.840;18.336;2022-11-15T10:38:17;8.25;94.71
75010;DHT22;63564;46.840;18.336;2022-11-15T10:44:30;8.06;95.71
75010;DHT22;63564;46.840;18.336;2022-11-15T10:47:31;8.07;96.06
75010;DHT22;63564;46.840;18.336;2022-11-15T10:50:32;8.17;96.15
75010;DHT22;63564;46.840;18.336;2022-11-15T10:53:41;8.07;95.17
75010;DHT22;63564;46.840;18.336;2022-11-15T10:56:49;7.98;94.66
75010;DHT22;63564;46.840;18.336;2022-11-15T11:03:34;7.77;96.02
75010;DHT22;63564;46.840;18.336;2022-11-15T11:06:59;7.77;95.86
75010;DHT22;63564;46.840;18.336;2022-11-15T11:10:19;7.73;95.81
75010;DHT22;63564;46.840;18.336;2022-11-15T11:16:44;8.23;98.51
75010;DHT22;63564;46.840;18.336;2022-11-15T11:20:02;8.10;95.50
75010;DHT22;63564;46.840;18.336;2022-11-15T11:26:57;8.20;96.70
75010;DHT22;63564;46.840;18.336;2022-11-15T11:30:20;8.24;95.91
75010;DHT22;63564;46.840;18.336;2022-11-15T11:33:31;8.23;96.11
75010;DHT22;63564;46.840;18.336;2022-11-15T11:43:36;8.89;93.32
75010;DHT22;63564;46.840;18.336;2022-11-15T11:50:23;9.10;91.52
75010;DHT22;63564;46.840;18.336;2022-11-15T11:53:31;9.20;92.25
75010;DHT22;63564;46.840;18.336;2022-11-15T11:56:39;9.00;91.70
75010;DHT22;63564;46.840;18.336;2022-11-15T11:59:47;9.03;92.97
75010;DHT22;63564;46.840;18.336;2022-11-15T12:03:08;8.92;93.02
75010;DHT22;63564;46.840;18.336;2022-11-15T12:09:51;9.09;92.30
75010;DHT22;63564;46.840;18.336;2022-11-15T12:13:03;9.31;91.38
75010;DHT22;63564;46.840;18.336;2022-11-15T12:16:22;9.24;91.87
75010;DHT22;63564;46.840;18.336;2022-11-15T12:19:24;9.11;93.32
75010;DHT22;63564;46.840;18.336;2022-11-15T12:23:00;9.03;93.09
75010;DHT22;63564;46.840;18.336;2022-11-15T12:26:05;9.17;93.29
75010;DHT22;63564;46.840;18.336;2022-11-15T12:29:16;9.00;93.48
75010;DHT22;63564;46.840;18.336;2022-11-15T12:32:36;9.00;94.11
75010;DHT22;63564;46.840;18.336;2022-11-15T12:35:40;9.01;94.09
75010;DHT22;63564;46.840;18.336;2022-11-15T12:39:01;9.11;94.80
75010;DHT22;63564;46.840;18.336;2022-11-15T12:45:56;9.10;93.38
75010;DHT22;63564;46.840;18.336;2022-11-15T12:48:52;8.90;94.38
75010;DHT22;63564;46.840;18.336;2022-11-15T12:55:00;9.06;93.81
75010;DHT22;63564;46.840;18.336;2022-11-15T12:58:39;9.28;93.37
75010;DHT22;63564;46.840;18.336;2022-11-15T13:04:41;9.24;93.03
75010;DHT22;63564;46.840;18.336;2022-11-15T13:10:44;9.11;94.75
75010;DHT22;63564;46.840;18.336;2022-11-15T13:13:45;9.16;94.32
75010;DHT22;63564;46.840;18.336;2022-11-15T13:16:46;8.99;94.92
75010;DHT22;63564;46.840;18.336;2022-11-15T13:19:53;9.03;94.79
75010;DHT22;63564;46.840;18.336;2022-11-15T13:23:15;9.23;93.50
75010;DHT22;63564;46.840;18.336;2022-11-15T13:26:16;9.34;93.17
75010;DHT22;63564;46.840;18.336;2022-11-15T13:29:18;9.07;94.63
75010;DHT22;63564;46.840;18.336;2022-11-15T13:32:19;9.30;93.77
75010;DHT22;63564;46.840;18.336;2022-11-15T13:35:25;9.16;94.46
75010;DHT22;63564;46.840;18.336;2022-11-15T13:38:32;9.14;94.73
75010;DHT22;63564;46.840;18.336;2022-11-15T13:41:34;9.24;94.93
75010;DHT22;63564;46.840;18.336;2022-11-15T13:44:35;9.26;94.37
75010;DHT22;63564;46.840;18.336;2022-11-15T13:47:35;9.19;94.40
75010;DHT22;63564;46.840;18.336;2022-11-15T13:50:37;9.35;94.51
75010;DHT22;63564;46.840;18.336;2022-11-15T13:53:42;9.32;93.96
75010;DHT22;63564;46.840;18.336;2022-11-15T13:56:49;9.41;93.97
75010;DHT22;63564;46.840;18.336;2022-11-15T14:00:01;9.55;93.35
75010;DHT22;63564;46.840;18.336;2022-11-15T14:03:19;9.78;92.08
75010;DHT22;63564;46.840;18.336;2022-11-15T14:06:21;9.69;92.26
75010;DHT22;63564;46.840;18.336;2022-11-15T14:09:33;9.62;92.70
75010;DHT22;63564;46.840;18.336;2022-11-15T14:12:35;9.35;94.05
75010;DHT22;63564;46.840;18.336;2022-11-15T14:15:37;9.34;94.02
75010;DHT22;63564;46.840;18.336;2022-11-15T14:25:16;9.44;94.65
75010;DHT22;63564;46.840;18.336;2022-11-15T14:31:21;9.24;95.48
75010;DHT22;63564;46.840;18.336;2022-11-15T14:34:22;9.37;95.00
75010;DHT22;63564;46.840;18.336;2022-11-15T14:37:30;9.41;94.88
75010;DHT22;63564;46.840;18.336;2022-11-15T14:40:33;9.27;96.35
75010;DHT22;63564;46.840;18.336;2022-11-15T14:43:34;9.14;96.65
75010;DHT22;63564;46.840;18.336;2022-11-15T14:46:34;9.01;96.55
75010;DHT22;63564;46.840;18.336;2022-11-15T14:49:34;9.11;96.46
75010;DHT22;63564;46.840;18.336;2022-11-15T14:52:35;9.19;96.20
75010;DHT22;63564;46.840;18.336;2022-11-15T14:55:35;9.32;95.30
75010;DHT22;63564;46.840;18.336;2022-11-15T14:58:36;9.41;95.14
75010;DHT22;63564;46.840;18.336;2022-11-15T15:01:36;9.31;95.69
75010;DHT22;63564;46.840;18.336;2022-11-15T15:04:36;9.44;95.04
75010;DHT22;63564;46.840;18.336;2022-11-15T15:07:37;9.24;95.81
75010;DHT22;63564;46.840;18.336;2022-11-15T15:10:40;9.27;95.90
75010;DHT22;63564;46.840;18.336;2022-11-15T15:13:41;9.31;95.77
75010;DHT22;63564;46.840;18.336;2022-11-15T15:16:42;9.39;95.41
75010;DHT22;63564;46.840;18.336;2022-11-15T15:19:42;9.24;96.22
75010;DHT22;63564;46.840;18.336;2022-11-15T15:22:43;9.04;97.25
75010;DHT22;63564;46.840;18.336;2022-11-15T15:25:44;9.00;97.72
75010;DHT22;63564;46.840;18.336;2022-11-15T15:28:45;9.00;97.75
75010;DHT22;63564;46.840;18.336;2022-11-15T15:31:47;9.01;97.77
75010;DHT22;63564;46.840;18.336;2022-11-15T15:34:47;8.99;97.57
75010;DHT22;63564;46.840;18.336;2022-11-15T15:37:48;9.07;97.57
75010;DHT22;63564;46.840;18.336;2022-11-15T15:40:49;9.13;97.44
75010;DHT22;63564;46.840;18.336;2022-11-15T15:43:50;9.09;97.50
75010;DHT22;63564;46.840;18.336;2022-11-15T15:46:50;9.17;97.19
75010;DHT22;63564;46.840;18.336;2022-11-15T15:49:51;9.07;97.45
75010;DHT22;63564;46.840;18.336;2022-11-15T15:52:53;9.21;97.28
75010;DHT22;63564;46.840;18.336;2022-11-15T15:55:54;9.23;96.81
75010;DHT22;63564;46.840;18.336;2022-11-15T15:58:54;9.06;97.42
75010;DHT22;63564;46.840;18.336;2022-11-15T16:01:55;9.03;97.46
75010;DHT22;63564;46.840;18.336;2022-11-15T16:04:56;9.01;97.94
75010;DHT22;63564;46.840;18.336;2022-11-15T16:07:56;9.19;97.29
75010;DHT22;63564;46.840;18.336;2022-11-15T16:10:57;9.06;97.51
75010;DHT22;63564;46.840;18.336;2022-11-15T16:13:57;9.19;96.90
75010;DHT22;63564;46.840;18.336;2022-11-15T16:16:57;9.14;97.59
75010;DHT22;63564;46.840;18.336;2022-11-15T16:19:58;9.06;98.19
75010;DHT22;63564;46.840;18.336;2022-11-15T16:22:59;9.04;98.12
75010;DHT22;63564;46.840;18.336;2022-11-15T16:25:59;9.13;98.07
75010;DHT22;63564;46.840;18.336;2022-11-15T16:29:01;9.16;97.68
75010;DHT22;63564;46.840;18.336;2022-11-15T16:32:02;9.32;97.09
75010;DHT22;63564;46.840;18.336;2022-11-15T16:35:02;9.27;97.56
75010;DHT22;63564;46.840;18.336;2022-11-15T16:38:03;9.32;97.36
75010;DHT22;63564;46.840;18.336;2022-11-15T16:41:03;9.23;97.56
75010;DHT22;63564;46.840;18.336;2022-11-15T16:44:03;9.03;98.56
75010;DHT22;63564;46.840;18.336;2022-11-15T16:47:04;9.03;98.60
75010;DHT22;63564;46.840;18.336;2022-11-15T16:50:05;8.97;99.11
75010;DHT22;63564;46.840;18.336;2022-11-15T16:53:05;8.97;99.27
75010;DHT22;63564;46.840;18.336;2022-11-15T16:56:25;9.09;99.07
75010;DHT22;63564;46.840;18.336;2022-11-15T16:59:26;9.03;98.69
75010;DHT22;63564;46.840;18.336;2022-11-15T17:02:26;9.06;98.69
75010;DHT22;63564;46.840;18.336;2022-11-15T17:05:26;9.03;99.03
75010;DHT22;63564;46.840;18.336;2022-11-15T17:08:27;9.19;98.55
75010;DHT22;63564;46.840;18.336;2022-11-15T17:11:28;9.21;98.44
75010;DHT22;63564;46.840;18.336;2022-11-15T17:14:28;9.37;97.65
75010;DHT22;63564;46.840;18.336;2022-11-15T17:17:29;9.26;98.02
75010;DHT22;63564;46.840;18.336;2022-11-15T17:20:29;9.31;97.90
75010;DHT22;63564;46.840;18.336;2022-11-15T17:23:30;9.39;97.20
75010;DHT22;63564;46.840;18.336;2022-11-15T17:26:31;9.31;97.66
75010;DHT22;63564;46.840;18.336;2022-11-15T17:29:31;9.37;97.16
75010;DHT22;63564;46.840;18.336;2022-11-15T17:32:35;9.24;97.88
75010;DHT22;63564;46.840;18.336;2022-11-15T17:35:36;9.31;97.85
75010;DHT22;63564;46.840;18.336;2022-11-15T17:38:36;9.52;97.10
75010;DHT22;63564;46.840;18.336;2022-11-15T17:41:37;9.58;96.89
75010;DHT22;63564;46.840;18.336;2022-11-15T17:44:37;9.19;97.89
75010;DHT22;63564;46.840;18.336;2022-11-15T17:47:37;9.21;97.73
75010;DHT22;63564;46.840;18.336;2022-11-15T17:50:38;9.28;97.79
75010;DHT22;63564;46.840;18.336;2022-11-15T17:53:43;9.13;98.19
75010;DHT22;63564;46.840;18.336;2022-11-15T17:56:44;9.21;97.89
75010;DHT22;63564;46.840;18.336;2022-11-15T17:59:44;9.06;98.14
75010;DHT22;63564;46.840;18.336;2022-11-15T18:02:45;9.10;98.08
75010;DHT22;63564;46.840;18.336;2022-11-15T18:05:45;9.14;98.34
75010;DHT22;63564;46.840;18.336;2022-11-15T18:08:47;9.24;97.87
75010;DHT22;63564;46.840;18.336;2022-11-15T18:11:47;9.13;98.31
75010;DHT22;63564;46.840;18.336;2022-11-15T18:14:50;9.23;97.91
75010;DHT22;63564;46.840;18.336;2022-11-15T18:17:50;9.39;97.30
75010;DHT22;63564;46.840;18.336;2022-11-15T18:21:01;9.26;97.51
75010;DHT22;63564;46.840;18.336;2022-11-15T18:24:02;9.27;97.86
75010;DHT22;63564;46.840;18.336;2022-11-15T18:27:05;9.39;96.97
75010;DHT22;63564;46.840;18.336;2022-11-15T18:30:06;9.32;97.20
75010;DHT22;63564;46.840;18.336;2022-11-15T18:33:06;9.39;97.36
75010;DHT22;63564;46.840;18.336;2022-11-15T18:36:09;9.34;97.27
75010;DHT22;63564;46.840;18.336;2022-11-15T18:39:10;9.23;97.90
75010;DHT22;63564;46.840;18.336;2022-11-15T18:42:15;9.13;97.97
75010;DHT22;63564;46.840;18.336;2022-11-15T18:45:15;9.20;98.31
75010;DHT22;63564;46.840;18.336;2022-11-15T18:48:16;9.23;98.05
75010;DHT22;63564;46.840;18.336;2022-11-15T18:51:19;9.23;97.59
75010;DHT22;63564;46.840;18.336;2022-11-15T18:54:19;9.37;96.92
75010;DHT22;63564;46.840;18.336;2022-11-15T18:57:20;9.41;96.70
75010;DHT22;63564;46.840;18.336;2022-11-15T19:00:20;9.45;96.19
75010;DHT22;63564;46.840;18.336;2022-11-15T19:03:20;9.44;96.42
75010;DHT22;63564;46.840;18.336;2022-11-15T19:06:26;9.39;96.32
75010;DHT22;63564;46.840;18.336;2022-11-15T19:09:28;9.14;97.36
75010;DHT22;63564;46.840;18.336;2022-11-15T19:12:31;9.28;97.09
75010;DHT22;63564;46.840;18.336;2022-11-15T19:15:32;9.31;97.20
75010;DHT22;63564;46.840;18.336;2022-11-15T19:18:32;9.10;97.43
75010;DHT22;63564;46.840;18.336;2022-11-15T19:21:33;9.21;97.70
75010;DHT22;63564;46.840;18.336;2022-11-15T19:24:33;9.03;98.15
75010;DHT22;63564;46.840;18.336;2022-11-15T19:27:34;9.04;98.42
75010;DHT22;63564;46.840;18.336;2022-11-15T19:30:34;8.97;98.32
75010;DHT22;63564;46.840;18.336;2022-11-15T19:33:35;8.90;98.50
75010;DHT22;63564;46.840;18.336;2022-11-15T19:36:38;8.82;99.13
75010;DHT22;63564;46.840;18.336;2022-11-15T19:39:38;8.83;98.94
75010;DHT22;63564;46.840;18.336;2022-11-15T19:42:39;8.97;98.41
75010;DHT22;63564;46.840;18.336;2022-11-15T19:45:39;9.00;98.27
75010;DHT22;63564;46.840;18.336;2022-11-15T19:48:40;9.23;97.67
75010;DHT22;63564;46.840;18.336;2022-11-15T19:51:40;9.31;97.08
75010;DHT22;63564;46.840;18.336;2022-11-15T19:54:43;9.24;97.29
75010;DHT22;63564;46.840;18.336;2022-11-15T19:57:43;9.01;97.84
75010;DHT22;63564;46.840;18.336;2022-11-15T20:00:43;9.23;97.51
75010;DHT22;63564;46.840;18.336;2022-11-15T20:03:44;9.16;97.06
75010;DHT22;63564;46.840;18.336;2022-11-15T20:06:45;8.83;98.41
75010;DHT22;63564;46.840;18.336;2022-11-15T20:09:45;8.99;98.44
75010;DHT22;63564;46.840;18.336;2022-11-15T20:12:46;8.92;98.23
75010;DHT22;63564;46.840;18.336;2022-11-15T20:15:46;9.01;97.83
75010;DHT22;63564;46.840;18.336;2022-11-15T20:18:48;9.10;97.57
75010;DHT22;63564;46.840;18.336;2022-11-15T20:21:48;9.11;97.23
75010;DHT22;63564;46.840;18.336;2022-11-15T20:24:49;9.27;96.23
75010;DHT22;63564;46.840;18.336;2022-11-15T20:27:49;9.31;96.12
75010;DHT22;63564;46.840;18.336;2022-11-15T20:30:53;9.14;96.98
75010;DHT22;63564;46.840;18.336;2022-11-15T20:33:54;9.11;97.33
75010;DHT22;63564;46.840;18.336;2022-11-15T20:36:54;9.17;96.93
75010;DHT22;63564;46.840;18.336;2022-11-15T20:39:54;9.20;96.48
75010;DHT22;63564;46.840;18.336;2022-11-15T20:42:54;9.10;96.91